sensor_id;sensor_type;location;lat;lon;timestamp;P1;durP1;ratioP1;P2;durP2;ratioP2
32319;SDS011;19080;51.750;5.888;2023-04-01T00:01:14;4.45;;;1.40;;
32319;SDS011;19080;51.750;5.888;2023-04-01T00:03:42;4.03;;;1.33;;
32319;SDS011;19080;51.750;5.888;2023-04-01T00:06:11;7.03;;;1.55;;
32319;SDS011;19080;51.750;5.888;2023-04-01T00:08:40;4.72;;;1.13;;
32319;SDS011;19080;51.750;5.888;2023-04-01T00:11:07;3.83;;;1.38;;
32319;SDS011;19080;51.750;5.888;2023-04-01T00:13:33;5.25;;;1.50;;
32319;SDS011;19080;51.750;5.888;2023-04-01T00:16:00;3.30;;;1.40;;
32319;SDS011;19080;51.750;5.888;2023-04-01T00:18:29;5.63;;;1.77;;
32319;SDS011;19080;51.750;5.888;2023-04-01T00:20:56;5.25;;;1.55;;
32319;SDS011;19080;51.750;5.888;2023-04-01T00:23:23;6.85;;;1.85;;
32319;SDS011;19080;51.750;5.888;2023-04-01T00:25:50;4.18;;;1.73;;
32319;SDS011;19080;51.750;5.888;2023-04-01T00:28:17;5.82;;;1.65;;
32319;SDS011;19080;51.750;5.888;2023-04-01T00:30:45;5.22;;;1.73;;
32319;SDS011;19080;51.750;5.888;2023-04-01T00:33:12;4.00;;;1.95;;
32319;SDS011;19080;51.750;5.888;2023-04-01T00:35:39;7.55;;;1.90;;
32319;SDS011;19080;51.750;5.888;2023-04-01T00:38:06;3.83;;;1.48;;
32319;SDS011;19080;51.750;5.888;2023-04-01T00:40:35;2.83;;;1.67;;
32319;SDS011;19080;51.750;5.888;2023-04-01T00:43:09;3.60;;;1.73;;
32319;SDS011;19080;51.750;5.888;2023-04-01T00:45:40;6.18;;;1.95;;
32319;SDS011;19080;51.750;5.888;2023-04-01T00:48:10;6.03;;;2.25;;
32319;SDS011;19080;51.750;5.888;2023-04-01T00:50:40;4.18;;;1.58;;
32319;SDS011;19080;51.750;5.888;2023-04-01T00:53:11;2.67;;;1.58;;
32319;SDS011;19080;51.750;5.888;2023-04-01T00:55:39;3.72;;;1.92;;
32319;SDS011;19080;51.750;5.888;2023-04-01T00:58:11;3.65;;;1.90;;
32319;SDS011;19080;51.750;5.888;2023-04-01T01:00:41;3.65;;;1.92;;
32319;SDS011;19080;51.750;5.888;2023-04-01T01:03:09;5.20;;;2.40;;
32319;SDS011;19080;51.750;5.888;2023-04-01T01:11:26;5.07;;;2.13;;
32319;SDS011;19080;51.750;5.888;2023-04-01T01:16:46;3.53;;;2.28;;
32319;SDS011;19080;51.750;5.888;2023-04-01T01:22:05;3.37;;;2.53;;
32319;SDS011;19080;51.750;5.888;2023-04-01T01:27:19;5.07;;;3.15;;
32319;SDS011;19080;51.750;5.888;2023-04-01T01:30:01;4.30;;;3.63;;
32319;SDS011;19080;51.750;5.888;2023-04-01T01:38:23;7.13;;;4.20;;
32319;SDS011;19080;51.750;5.888;2023-04-01T01:40:57;7.43;;;4.13;;
32319;SDS011;19080;51.750;5.888;2023-04-01T01:43:30;5.30;;;4.28;;
32319;SDS011;19080;51.750;5.888;2023-04-01T01:46:01;5.03;;;4.30;;
32319;SDS011;19080;51.750;5.888;2023-04-01T01:48:34;7.95;;;4.88;;
32319;SDS011;19080;51.750;5.888;2023-04-01T01:51:03;6.13;;;4.68;;
32319;SDS011;19080;51.750;5.888;2023-04-01T01:53:31;5.18;;;4.68;;
32319;SDS011;19080;51.750;5.888;2023-04-01T01:55:59;4.97;;;4.50;;
32319;SDS011;19080;51.750;5.888;2023-04-01T01:58:31;6.15;;;5.10;;
32319;SDS011;19080;51.750;5.888;2023-04-01T02:01:16;5.72;;;5.22;;
32319;SDS011;19080;51.750;5.888;2023-04-01T02:03:46;7.10;;;6.40;;
32319;SDS011;19080;51.750;5.888;2023-04-01T02:06:15;6.03;;;5.10;;
32319;SDS011;19080;51.750;5.888;2023-04-01T02:08:45;6.70;;;6.10;;
32319;SDS011;19080;51.750;5.888;2023-04-01T02:11:18;6.90;;;6.30;;
32319;SDS011;19080;51.750;5.888;2023-04-01T02:13:51;7.57;;;6.78;;
32319;SDS011;19080;51.750;5.888;2023-04-01T02:16:26;7.13;;;6.53;;
32319;SDS011;19080;51.750;5.888;2023-04-01T02:18:58;8.13;;;6.07;;
32319;SDS011;19080;51.750;5.888;2023-04-01T02:21:27;7.80;;;7.00;;
32319;SDS011;19080;51.750;5.888;2023-04-01T02:23:57;7.32;;;6.63;;
32319;SDS011;19080;51.750;5.888;2023-04-01T02:26:27;7.78;;;7.07;;
32319;SDS011;19080;51.750;5.888;2023-04-01T02:28:54;9.70;;;7.70;;
32319;SDS011;19080;51.750;5.888;2023-04-01T02:31:23;9.48;;;7.10;;
32319;SDS011;19080;51.750;5.888;2023-04-01T02:33:52;7.43;;;6.80;;
32319;SDS011;19080;51.750;5.888;2023-04-01T02:36:19;7.93;;;7.18;;
32319;SDS011;19080;51.750;5.888;2023-04-01T02:38:47;7.70;;;7.00;;
32319;SDS011;19080;51.750;5.888;2023-04-01T02:41:16;7.32;;;6.63;;
32319;SDS011;19080;51.750;5.888;2023-04-01T02:43:42;7.50;;;6.80;;
32319;SDS011;19080;51.750;5.888;2023-04-01T02:46:09;7.50;;;6.78;;
32319;SDS011;19080;51.750;5.888;2023-04-01T02:48:36;6.97;;;6.28;;
32319;SDS011;19080;51.750;5.888;2023-04-01T02:51:03;6.03;;;5.32;;
32319;SDS011;19080;51.750;5.888;2023-04-01T02:53:30;7.93;;;6.68;;
32319;SDS011;19080;51.750;5.888;2023-04-01T02:55:56;6.45;;;5.88;;
32319;SDS011;19080;51.750;5.888;2023-04-01T02:58:23;6.78;;;6.18;;
32319;SDS011;19080;51.750;5.888;2023-04-01T03:00:50;6.38;;;5.78;;
32319;SDS011;19080;51.750;5.888;2023-04-01T03:03:17;4.97;;;4.47;;
32319;SDS011;19080;51.750;5.888;2023-04-01T03:05:44;4.18;;;3.78;;
32319;SDS011;19080;51.750;5.888;2023-04-01T03:08:10;4.15;;;3.65;;
32319;SDS011;19080;51.750;5.888;2023-04-01T03:10:38;3.90;;;3.60;;
32319;SDS011;19080;51.750;5.888;2023-04-01T03:13:05;3.95;;;3.65;;
32319;SDS011;19080;51.750;5.888;2023-04-01T03:15:32;5.63;;;4.97;;
32319;SDS011;19080;51.750;5.888;2023-04-01T03:17:59;5.20;;;4.70;;
32319;SDS011;19080;51.750;5.888;2023-04-01T03:20:26;7.13;;;6.20;;
32319;SDS011;19080;51.750;5.888;2023-04-01T03:22:53;6.38;;;5.78;;
32319;SDS011;19080;51.750;5.888;2023-04-01T03:25:19;6.82;;;5.30;;
32319;SDS011;19080;51.750;5.888;2023-04-01T03:27:46;6.13;;;5.53;;
32319;SDS011;19080;51.750;5.888;2023-04-01T03:30:13;5.82;;;5.20;;
32319;SDS011;19080;51.750;5.888;2023-04-01T03:32:48;5.65;;;4.90;;
32319;SDS011;19080;51.750;5.888;2023-04-01T03:35:14;5.55;;;4.38;;
32319;SDS011;19080;51.750;5.888;2023-04-01T03:37:41;4.20;;;3.80;;
32319;SDS011;19080;51.750;5.888;2023-04-01T03:40:09;4.57;;;4.03;;
32319;SDS011;19080;51.750;5.888;2023-04-01T03:42:36;4.43;;;4.03;;
32319;SDS011;19080;51.750;5.888;2023-04-01T03:45:04;4.97;;;4.57;;
32319;SDS011;19080;51.750;5.888;2023-04-01T03:47:31;6.28;;;4.90;;
32319;SDS011;19080;51.750;5.888;2023-04-01T03:49:58;5.40;;;4.88;;
32319;SDS011;19080;51.750;5.888;2023-04-01T03:52:25;6.43;;;4.40;;
32319;SDS011;19080;51.750;5.888;2023-04-01T03:54:51;5.55;;;5.03;;
32319;SDS011;19080;51.750;5.888;2023-04-01T03:57:18;5.07;;;4.53;;
32319;SDS011;19080;51.750;5.888;2023-04-01T03:59:45;4.38;;;3.97;;
32319;SDS011;19080;51.750;5.888;2023-04-01T04:02:12;5.00;;;4.50;;
32319;SDS011;19080;51.750;5.888;2023-04-01T04:04:39;6.30;;;4.75;;
32319;SDS011;19080;51.750;5.888;2023-04-01T04:07:06;6.28;;;5.30;;
32319;SDS011;19080;51.750;5.888;2023-04-01T04:09:53;6.05;;;5.47;;
32319;SDS011;19080;51.750;5.888;2023-04-01T04:12:19;6.88;;;6.18;;
32319;SDS011;19080;51.750;5.888;2023-04-01T04:14:46;6.70;;;6.10;;
32319;SDS011;19080;51.750;5.888;2023-04-01T04:17:12;7.15;;;6.43;;
32319;SDS011;19080;51.750;5.888;2023-04-01T04:19:43;6.97;;;6.28;;
32319;SDS011;19080;51.750;5.888;2023-04-01T04:22:10;7.72;;;5.88;;
32319;SDS011;19080;51.750;5.888;2023-04-01T04:24:37;5.90;;;5.20;;
32319;SDS011;19080;51.750;5.888;2023-04-01T04:27:10;6.47;;;5.85;;
32319;SDS011;19080;51.750;5.888;2023-04-01T04:29:46;7.78;;;6.15;;
32319;SDS011;19080;51.750;5.888;2023-04-01T04:32:13;7.35;;;5.70;;
32319;SDS011;19080;51.750;5.888;2023-04-01T04:34:39;5.80;;;4.63;;
32319;SDS011;19080;51.750;5.888;2023-04-01T04:37:06;5.50;;;4.40;;
32319;SDS011;19080;51.750;5.888;2023-04-01T04:39:35;5.20;;;4.35;;
32319;SDS011;19080;51.750;5.888;2023-04-01T04:42:02;5.95;;;4.70;;
32319;SDS011;19080;51.750;5.888;2023-04-01T04:44:29;4.90;;;4.40;;
32319;SDS011;19080;51.750;5.888;2023-04-01T04:46:56;5.93;;;4.55;;
32319;SDS011;19080;51.750;5.888;2023-04-01T04:49:24;4.95;;;4.45;;
32319;SDS011;19080;51.750;5.888;2023-04-01T04:51:51;4.50;;;4.15;;
32319;SDS011;19080;51.750;5.888;2023-04-01T04:54:21;5.57;;;5.07;;
32319;SDS011;19080;51.750;5.888;2023-04-01T04:56:56;5.03;;;4.63;;
32319;SDS011;19080;51.750;5.888;2023-04-01T04:59:25;6.82;;;4.72;;
32319;SDS011;19080;51.750;5.888;2023-04-01T05:02:00;6.32;;;5.75;;
32319;SDS011;19080;51.750;5.888;2023-04-01T05:04:28;5.90;;;5.40;;
32319;SDS011;19080;51.750;5.888;2023-04-01T05:06:54;5.40;;;4.95;;
32319;SDS011;19080;51.750;5.888;2023-04-01T05:09:22;7.30;;;6.55;;
32319;SDS011;19080;51.750;5.888;2023-04-01T05:11:49;6.57;;;5.97;;
32319;SDS011;19080;51.750;5.888;2023-04-01T05:14:17;7.88;;;6.80;;
32319;SDS011;19080;51.750;5.888;2023-04-01T05:16:53;8.55;;;7.65;;
32319;SDS011;19080;51.750;5.888;2023-04-01T05:19:21;8.07;;;7.18;;
32319;SDS011;19080;51.750;5.888;2023-04-01T05:21:47;6.95;;;6.07;;
32319;SDS011;19080;51.750;5.888;2023-04-01T05:24:15;7.82;;;6.70;;
32319;SDS011;19080;51.750;5.888;2023-04-01T05:26:42;9.18;;;6.63;;
32319;SDS011;19080;51.750;5.888;2023-04-01T05:29:08;8.40;;;7.60;;
32319;SDS011;19080;51.750;5.888;2023-04-01T05:31:36;8.25;;;7.18;;
32319;SDS011;19080;51.750;5.888;2023-04-01T05:34:06;9.95;;;7.13;;
32319;SDS011;19080;51.750;5.888;2023-04-01T05:36:33;7.40;;;6.70;;
32319;SDS011;19080;51.750;5.888;2023-04-01T05:39:00;7.50;;;6.80;;
32319;SDS011;19080;51.750;5.888;2023-04-01T05:41:27;8.23;;;6.95;;
32319;SDS011;19080;51.750;5.888;2023-04-01T05:43:54;7.50;;;6.80;;
32319;SDS011;19080;51.750;5.888;2023-04-01T05:46:41;8.20;;;7.18;;
32319;SDS011;19080;51.750;5.888;2023-04-01T05:49:20;9.18;;;8.27;;
32319;SDS011;19080;51.750;5.888;2023-04-01T05:51:48;10.13;;;9.07;;
32319;SDS011;19080;51.750;5.888;2023-04-01T05:54:15;11.85;;;10.07;;
32319;SDS011;19080;51.750;5.888;2023-04-01T05:56:48;13.38;;;11.52;;
32319;SDS011;19080;51.750;5.888;2023-04-01T05:59:20;12.80;;;11.35;;
32319;SDS011;19080;51.750;5.888;2023-04-01T06:01:46;14.23;;;11.63;;
32319;SDS011;19080;51.750;5.888;2023-04-01T06:04:14;16.08;;;12.98;;
32319;SDS011;19080;51.750;5.888;2023-04-01T06:06:42;18.05;;;13.50;;
32319;SDS011;19080;51.750;5.888;2023-04-01T06:09:16;16.65;;;14.27;;
32319;SDS011;19080;51.750;5.888;2023-04-01T06:11:57;17.20;;;14.23;;
32319;SDS011;19080;51.750;5.888;2023-04-01T06:28:52;18.73;;;15.05;;
32319;SDS011;19080;51.750;5.888;2023-04-01T06:34:29;19.55;;;15.90;;
32319;SDS011;19080;51.750;5.888;2023-04-01T06:40:12;24.92;;;17.95;;
32319;SDS011;19080;51.750;5.888;2023-04-01T06:42:59;21.42;;;17.30;;
32319;SDS011;19080;51.750;5.888;2023-04-01T06:49:07;27.65;;;19.52;;
32319;SDS011;19080;51.750;5.888;2023-04-01T06:52:10;23.42;;;18.15;;
32319;SDS011;19080;51.750;5.888;2023-04-01T06:55:12;23.50;;;16.95;;
32319;SDS011;19080;51.750;5.888;2023-04-01T06:58:14;27.55;;;19.30;;
32319;SDS011;19080;51.750;5.888;2023-04-01T07:00:48;21.23;;;17.40;;
32319;SDS011;19080;51.750;5.888;2023-04-01T07:03:32;24.08;;;17.10;;
32319;SDS011;19080;51.750;5.888;2023-04-01T07:06:05;23.63;;;17.95;;
32319;SDS011;19080;51.750;5.888;2023-04-01T07:08:41;26.42;;;19.17;;
32319;SDS011;19080;51.750;5.888;2023-04-01T07:11:22;22.30;;;17.48;;
32319;SDS011;19080;51.750;5.888;2023-04-01T07:17:08;26.10;;;19.98;;
32319;SDS011;19080;51.750;5.888;2023-04-01T07:19:51;27.52;;;18.08;;
32319;SDS011;19080;51.750;5.888;2023-04-01T07:25:13;27.30;;;18.45;;
32319;SDS011;19080;51.750;5.888;2023-04-01T07:28:01;24.08;;;17.95;;
32319;SDS011;19080;51.750;5.888;2023-04-01T07:33:16;26.10;;;19.00;;
32319;SDS011;19080;51.750;5.888;2023-04-01T07:35:54;26.55;;;18.55;;
32319;SDS011;19080;51.750;5.888;2023-04-01T07:38:35;23.88;;;18.08;;
32319;SDS011;19080;51.750;5.888;2023-04-01T07:41:27;27.55;;;18.52;;
32319;SDS011;19080;51.750;5.888;2023-04-01T07:44:10;28.67;;;17.25;;
32319;SDS011;19080;51.750;5.888;2023-04-01T07:47:16;24.77;;;17.35;;
32319;SDS011;19080;51.750;5.888;2023-04-01T07:50:13;22.33;;;15.55;;
32319;SDS011;19080;51.750;5.888;2023-04-01T07:52:53;21.88;;;15.27;;
32319;SDS011;19080;51.750;5.888;2023-04-01T07:56:08;19.75;;;15.40;;
32319;SDS011;19080;51.750;5.888;2023-04-01T08:04:53;19.27;;;13.85;;
32319;SDS011;19080;51.750;5.888;2023-04-01T08:07:23;22.55;;;15.20;;
32319;SDS011;19080;51.750;5.888;2023-04-01T08:10:16;17.63;;;13.95;;
32319;SDS011;19080;51.750;5.888;2023-04-01T08:14:02;18.63;;;13.50;;
32319;SDS011;19080;51.750;5.888;2023-04-01T08:16:37;16.63;;;12.15;;
32319;SDS011;19080;51.750;5.888;2023-04-01T08:19:31;16.52;;;12.05;;
32319;SDS011;19080;51.750;5.888;2023-04-01T08:24:57;17.30;;;11.80;;
32319;SDS011;19080;51.750;5.888;2023-04-01T08:32:55;14.80;;;11.20;;
32319;SDS011;19080;51.750;5.888;2023-04-01T08:35:37;17.35;;;11.05;;
32319;SDS011;19080;51.750;5.888;2023-04-01T08:38:11;13.18;;;10.57;;
32319;SDS011;19080;51.750;5.888;2023-04-01T08:55:13;11.93;;;8.63;;
32319;SDS011;19080;51.750;5.888;2023-04-01T09:06:39;10.70;;;8.93;;
32319;SDS011;19080;51.750;5.888;2023-04-01T09:26:15;12.82;;;10.38;;
32319;SDS011;19080;51.750;5.888;2023-04-01T09:32:00;12.68;;;10.95;;
32319;SDS011;19080;51.750;5.888;2023-04-01T09:35:20;16.63;;;11.40;;
32319;SDS011;19080;51.750;5.888;2023-04-01T09:51:45;17.45;;;12.40;;
32319;SDS011;19080;51.750;5.888;2023-04-01T09:54:32;19.88;;;13.30;;
32319;SDS011;19080;51.750;5.888;2023-04-01T09:57:33;21.98;;;16.48;;
32319;SDS011;19080;51.750;5.888;2023-04-01T10:15:39;21.85;;;15.40;;
32319;SDS011;19080;51.750;5.888;2023-04-01T10:39:34;18.77;;;14.07;;
32319;SDS011;19080;51.750;5.888;2023-04-01T10:58:05;17.92;;;14.70;;
32319;SDS011;19080;51.750;5.888;2023-04-01T11:11:10;15.90;;;13.50;;
32319;SDS011;19080;51.750;5.888;2023-04-01T11:25:56;17.88;;;13.43;;
32319;SDS011;19080;51.750;5.888;2023-04-01T11:43:29;12.32;;;10.07;;
32319;SDS011;19080;51.750;5.888;2023-04-01T11:46:30;11.70;;;9.60;;
32319;SDS011;19080;51.750;5.888;2023-04-01T11:52:04;12.05;;;9.65;;
32319;SDS011;19080;51.750;5.888;2023-04-01T11:57:46;15.52;;;10.77;;
32319;SDS011;19080;51.750;5.888;2023-04-01T12:00:36;11.60;;;9.68;;
32319;SDS011;19080;51.750;5.888;2023-04-01T12:09:41;13.13;;;9.68;;
32319;SDS011;19080;51.750;5.888;2023-04-01T12:13:07;15.30;;;10.32;;
32319;SDS011;19080;51.750;5.888;2023-04-01T12:21:27;12.23;;;9.13;;
32319;SDS011;19080;51.750;5.888;2023-04-01T12:24:25;11.35;;;9.48;;
32319;SDS011;19080;51.750;5.888;2023-04-01T12:29:57;11.60;;;10.05;;
32319;SDS011;19080;51.750;5.888;2023-04-01T12:41:44;9.45;;;6.93;;
32319;SDS011;19080;51.750;5.888;2023-04-01T12:44:42;9.73;;;7.95;;
32319;SDS011;19080;51.750;5.888;2023-04-01T12:53:42;7.20;;;6.50;;
32319;SDS011;19080;51.750;5.888;2023-04-01T12:56:39;8.38;;;7.05;;
32319;SDS011;19080;51.750;5.888;2023-04-01T13:05:40;9.57;;;6.72;;
32319;SDS011;19080;51.750;5.888;2023-04-01T13:08:37;9.07;;;8.20;;
32319;SDS011;19080;51.750;5.888;2023-04-01T13:17:01;8.75;;;7.85;;
32319;SDS011;19080;51.750;5.888;2023-04-01T13:22:50;7.60;;;6.90;;
32319;SDS011;19080;51.750;5.888;2023-04-01T13:25:29;7.88;;;7.07;;
32319;SDS011;19080;51.750;5.888;2023-04-01T13:30:37;9.88;;;7.07;;
32319;SDS011;19080;51.750;5.888;2023-04-01T13:36:07;9.35;;;7.95;;
32319;SDS011;19080;51.750;5.888;2023-04-01T13:41:32;11.50;;;9.70;;
32319;SDS011;19080;51.750;5.888;2023-04-01T13:44:20;9.80;;;8.85;;
32319;SDS011;19080;51.750;5.888;2023-04-01T13:50:16;10.02;;;8.95;;
32319;SDS011;19080;51.750;5.888;2023-04-01T13:53:09;11.43;;;10.18;;
32319;SDS011;19080;51.750;5.888;2023-04-01T14:12:04;13.20;;;10.80;;
32319;SDS011;19080;51.750;5.888;2023-04-01T14:20:25;10.30;;;9.20;;
32319;SDS011;19080;51.750;5.888;2023-04-01T14:28:32;11.82;;;10.27;;
32319;SDS011;19080;51.750;5.888;2023-04-01T14:42:45;11.10;;;9.60;;
32319;SDS011;19080;51.750;5.888;2023-04-01T14:45:32;10.35;;;8.85;;
32319;SDS011;19080;51.750;5.888;2023-04-01T14:51:36;10.85;;;9.57;;
32319;SDS011;19080;51.750;5.888;2023-04-01T14:57:10;11.00;;;9.73;;
32319;SDS011;19080;51.750;5.888;2023-04-01T15:00:09;10.75;;;9.68;;
32319;SDS011;19080;51.750;5.888;2023-04-01T15:11:01;10.98;;;8.63;;
32319;SDS011;19080;51.750;5.888;2023-04-01T15:19:12;8.98;;;7.80;;
32319;SDS011;19080;51.750;5.888;2023-04-01T15:33:30;5.43;;;4.63;;
32319;SDS011;19080;51.750;5.888;2023-04-01T15:38:53;4.53;;;4.07;;
32319;SDS011;19080;51.750;5.888;2023-04-01T15:44:02;16.48;;;13.02;;
32319;SDS011;19080;51.750;5.888;2023-04-01T15:46:32;18.20;;;13.85;;
32319;SDS011;19080;51.750;5.888;2023-04-01T15:49:28;29.98;;;21.83;;
32319;SDS011;19080;51.750;5.888;2023-04-01T15:52:10;25.50;;;18.80;;
32319;SDS011;19080;51.750;5.888;2023-04-01T15:57:39;19.13;;;13.30;;
32319;SDS011;19080;51.750;5.888;2023-04-01T16:09:16;17.27;;;11.63;;
32319;SDS011;19080;51.750;5.888;2023-04-01T16:12:03;9.60;;;6.93;;
32319;SDS011;19080;51.750;5.888;2023-04-01T16:18:01;6.65;;;5.95;;
32319;SDS011;19080;51.750;5.888;2023-04-01T16:20:40;7.05;;;6.35;;
32319;SDS011;19080;51.750;5.888;2023-04-01T16:23:36;6.05;;;5.25;;
32319;SDS011;19080;51.750;5.888;2023-04-01T16:26:13;8.00;;;7.13;;
32319;SDS011;19080;51.750;5.888;2023-04-01T16:28:50;8.52;;;7.72;;
32319;SDS011;19080;51.750;5.888;2023-04-01T16:34:14;10.95;;;8.63;;
32319;SDS011;19080;51.750;5.888;2023-04-01T16:36:59;9.43;;;7.78;;
32319;SDS011;19080;51.750;5.888;2023-04-01T16:42:22;11.02;;;8.80;;
32319;SDS011;19080;51.750;5.888;2023-04-01T16:47:38;6.35;;;5.75;;
32319;SDS011;19080;51.750;5.888;2023-04-01T16:50:13;6.72;;;5.95;;
32319;SDS011;19080;51.750;5.888;2023-04-01T16:53:00;7.35;;;5.65;;
32319;SDS011;19080;51.750;5.888;2023-04-01T16:55:55;3.28;;;2.95;;
32319;SDS011;19080;51.750;5.888;2023-04-01T17:01:21;5.57;;;4.60;;
32319;SDS011;19080;51.750;5.888;2023-04-01T17:03:57;2.25;;;2.05;;
32319;SDS011;19080;51.750;5.888;2023-04-01T17:12:10;2.70;;;2.50;;
32319;SDS011;19080;51.750;5.888;2023-04-01T17:17:37;4.28;;;3.13;;
32319;SDS011;19080;51.750;5.888;2023-04-01T17:20:28;3.30;;;3.00;;
32319;SDS011;19080;51.750;5.888;2023-04-01T17:23:14;6.05;;;5.45;;
32319;SDS011;19080;51.750;5.888;2023-04-01T17:39:41;6.60;;;4.85;;
32319;SDS011;19080;51.750;5.888;2023-04-01T17:42:21;5.93;;;4.72;;
32319;SDS011;19080;51.750;5.888;2023-04-01T17:45:07;5.15;;;4.60;;
32319;SDS011;19080;51.750;5.888;2023-04-01T17:47:45;6.40;;;5.18;;
32319;SDS011;19080;51.750;5.888;2023-04-01T17:50:22;5.50;;;5.00;;
32319;SDS011;19080;51.750;5.888;2023-04-01T17:53:06;5.15;;;4.65;;
32319;SDS011;19080;51.750;5.888;2023-04-01T17:55:45;4.95;;;4.45;;
32319;SDS011;19080;51.750;5.888;2023-04-01T17:58:28;4.20;;;3.85;;
32319;SDS011;19080;51.750;5.888;2023-04-01T18:01:23;4.80;;;4.40;;
32319;SDS011;19080;51.750;5.888;2023-04-01T18:04:09;5.20;;;4.80;;
32319;SDS011;19080;51.750;5.888;2023-04-01T18:07:20;5.60;;;5.10;;
32319;SDS011;19080;51.750;5.888;2023-04-01T18:20:54;10.00;;;9.23;;
32319;SDS011;19080;51.750;5.888;2023-04-01T18:23:45;7.15;;;6.45;;
32319;SDS011;19080;51.750;5.888;2023-04-01T18:26:32;6.40;;;5.90;;
32319;SDS011;19080;51.750;5.888;2023-04-01T18:29:08;6.65;;;6.05;;
32319;SDS011;19080;51.750;5.888;2023-04-01T18:31:49;7.30;;;6.63;;
32319;SDS011;19080;51.750;5.888;2023-04-01T18:34:37;7.05;;;6.45;;
32319;SDS011;19080;51.750;5.888;2023-04-01T18:37:28;7.75;;;7.05;;
32319;SDS011;19080;51.750;5.888;2023-04-01T18:40:21;7.37;;;6.70;;
32319;SDS011;19080;51.750;5.888;2023-04-01T18:45:51;9.35;;;8.55;;
32319;SDS011;19080;51.750;5.888;2023-04-01T18:56:37;8.85;;;8.10;;
32319;SDS011;19080;51.750;5.888;2023-04-01T18:59:09;9.75;;;8.85;;
32319;SDS011;19080;51.750;5.888;2023-04-01T19:01:47;10.00;;;9.05;;
32319;SDS011;19080;51.750;5.888;2023-04-01T19:06:58;9.68;;;8.77;;
32319;SDS011;19080;51.750;5.888;2023-04-01T19:17:47;10.15;;;9.25;;
32319;SDS011;19080;51.750;5.888;2023-04-01T19:25:52;10.95;;;9.98;;
32319;SDS011;19080;51.750;5.888;2023-04-01T19:28:34;9.05;;;8.27;;
32319;SDS011;19080;51.750;5.888;2023-04-01T19:31:24;9.95;;;9.13;;
32319;SDS011;19080;51.750;5.888;2023-04-01T19:42:43;9.13;;;8.30;;
32319;SDS011;19080;51.750;5.888;2023-04-01T19:57:14;9.57;;;8.68;;
32319;SDS011;19080;51.750;5.888;2023-04-01T20:00:07;10.43;;;9.52;;
32319;SDS011;19080;51.750;5.888;2023-04-01T20:05:31;12.07;;;9.32;;
32319;SDS011;19080;51.750;5.888;2023-04-01T20:10:49;8.95;;;8.15;;
32319;SDS011;19080;51.750;5.888;2023-04-01T20:13:26;10.45;;;9.40;;
32319;SDS011;19080;51.750;5.888;2023-04-01T20:16:01;10.00;;;9.10;;
32319;SDS011;19080;51.750;5.888;2023-04-01T20:21:33;8.82;;;7.88;;
32319;SDS011;19080;51.750;5.888;2023-04-01T20:27:04;8.40;;;7.63;;
32319;SDS011;19080;51.750;5.888;2023-04-01T20:29:47;8.60;;;7.80;;
32319;SDS011;19080;51.750;5.888;2023-04-01T20:41:23;10.33;;;9.43;;
32319;SDS011;19080;51.750;5.888;2023-04-01T20:43:58;10.38;;;9.30;;
32319;SDS011;19080;51.750;5.888;2023-04-01T20:52:01;9.48;;;8.68;;
32319;SDS011;19080;51.750;5.888;2023-04-01T20:54:40;9.55;;;8.75;;
32319;SDS011;19080;51.750;5.888;2023-04-01T21:02:32;11.23;;;10.13;;
32319;SDS011;19080;51.750;5.888;2023-04-01T21:05:27;11.05;;;10.02;;
32319;SDS011;19080;51.750;5.888;2023-04-01T21:08:28;11.40;;;10.40;;
32319;SDS011;19080;51.750;5.888;2023-04-01T21:18:58;11.40;;;10.32;;
32319;SDS011;19080;51.750;5.888;2023-04-01T21:29:33;9.70;;;8.85;;
32319;SDS011;19080;51.750;5.888;2023-04-01T21:38:24;10.27;;;8.30;;
32319;SDS011;19080;51.750;5.888;2023-04-01T21:41:00;9.88;;;8.98;;
32319;SDS011;19080;51.750;5.888;2023-04-01T22:00:56;7.93;;;7.22;;
32319;SDS011;19080;51.750;5.888;2023-04-01T22:06:33;7.55;;;6.95;;
32319;SDS011;19080;51.750;5.888;2023-04-01T22:09:10;8.48;;;7.70;;
32319;SDS011;19080;51.750;5.888;2023-04-01T22:12:03;7.78;;;7.07;;
32319;SDS011;19080;51.750;5.888;2023-04-01T22:17:58;7.25;;;6.65;;
32319;SDS011;19080;51.750;5.888;2023-04-01T22:20:42;6.57;;;5.97;;
32319;SDS011;19080;51.750;5.888;2023-04-01T22:26:04;7.70;;;6.47;;
32319;SDS011;19080;51.750;5.888;2023-04-01T22:29:11;8.63;;;7.82;;
32319;SDS011;19080;51.750;5.888;2023-04-01T22:32:03;8.40;;;7.60;;
32319;SDS011;19080;51.750;5.888;2023-04-01T22:34:37;10.02;;;9.13;;
32319;SDS011;19080;51.750;5.888;2023-04-01T22:45:53;12.80;;;8.90;;
32319;SDS011;19080;51.750;5.888;2023-04-01T22:48:50;9.95;;;9.10;;
32319;SDS011;19080;51.750;5.888;2023-04-01T22:51:26;10.45;;;9.45;;
32319;SDS011;19080;51.750;5.888;2023-04-01T22:53:59;10.55;;;9.48;;
32319;SDS011;19080;51.750;5.888;2023-04-01T22:56:37;9.68;;;8.77;;
32319;SDS011;19080;51.750;5.888;2023-04-01T23:01:44;8.02;;;7.32;;
32319;SDS011;19080;51.750;5.888;2023-04-01T23:04:21;7.63;;;6.95;;
32319;SDS011;19080;51.750;5.888;2023-04-01T23:06:53;7.80;;;7.10;;
32319;SDS011;19080;51.750;5.888;2023-04-01T23:09:25;7.45;;;6.85;;
32319;SDS011;19080;51.750;5.888;2023-04-01T23:14:28;7.88;;;7.18;;
32319;SDS011;19080;51.750;5.888;2023-04-01T23:22:34;7.90;;;7.20;;
32319;SDS011;19080;51.750;5.888;2023-04-01T23:38:23;7.60;;;6.90;;
32319;SDS011;19080;51.750;5.888;2023-04-01T23:40:52;8.18;;;7.30;;
32319;SDS011;19080;51.750;5.888;2023-04-01T23:43:25;8.73;;;7.78;;
32319;SDS011;19080;51.750;5.888;2023-04-01T23:45:54;8.32;;;7.55;;
32319;SDS011;19080;51.750;5.888;2023-04-01T23:48:25;8.70;;;7.90;;
32319;SDS011;19080;51.750;5.888;2023-04-01T23:50:59;8.95;;;8.02;;
32319;SDS011;19080;51.750;5.888;2023-04-01T23:53:29;9.00;;;8.10;;
32319;SDS011;19080;51.750;5.888;2023-04-01T23:55:58;9.80;;;8.90;;
32319;SDS011;19080;51.750;5.888;2023-04-01T23:58:38;9.60;;;8.60;;
